createdAt,value
2018-09-17T00:00:46.540Z,4.10
2018-09-17T00:03:14.990Z,4.17
2018-09-17T00:05:43.584Z,3.93
2018-09-17T00:08:12.035Z,4.10
2018-09-17T00:10:40.631Z,3.90
2018-09-17T00:13:09.215Z,3.83
2018-09-17T00:15:37.798Z,4.10
2018-09-17T00:18:06.782Z,4.13
2018-09-17T00:20:35.394Z,3.73
2018-09-17T00:23:03.862Z,3.47
2018-09-17T00:25:32.260Z,4.20
2018-09-17T00:28:01.040Z,3.90
2018-09-17T00:30:29.692Z,3.67
2018-09-17T00:32:58.981Z,4.10
2018-09-17T00:35:27.413Z,4.40
2018-09-17T00:37:55.924Z,3.43
2018-09-17T00:40:24.477Z,3.50
2018-09-17T00:42:52.951Z,4.33
2018-09-17T00:45:21.699Z,3.67
2018-09-17T00:47:50.226Z,4.03
2018-09-17T00:50:18.801Z,4.07
2018-09-17T00:52:47.273Z,4.30
2018-09-17T00:55:15.695Z,4.37
2018-09-17T00:57:44.762Z,4.33
2018-09-17T01:00:13.295Z,3.70
2018-09-17T01:02:41.888Z,3.97
2018-09-17T01:05:10.305Z,5.13
2018-09-17T01:07:38.800Z,5.23
2018-09-17T01:10:07.352Z,4.73
2018-09-17T01:12:35.891Z,4.50
2018-09-17T01:15:04.508Z,4.77
2018-09-17T01:17:32.964Z,5.13
2018-09-17T01:20:08.176Z,5.13
2018-09-17T01:22:36.708Z,4.43
2018-09-17T01:25:05.248Z,4.60
2018-09-17T01:27:33.948Z,4.73
2018-09-17T01:30:02.780Z,5.00
2018-09-17T01:32:31.920Z,4.07
2018-09-17T01:35:00.550Z,4.60
2018-09-17T01:37:29.093Z,4.77
2018-09-17T01:39:57.663Z,4.90
2018-09-17T01:42:26.659Z,4.93
2018-09-17T01:44:56.267Z,5.43
2018-09-17T01:47:24.887Z,5.10
2018-09-17T01:49:53.320Z,5.33
2018-09-17T01:52:22.804Z,5.23
2018-09-17T01:54:51.426Z,5.33
2018-09-17T01:57:19.956Z,5.40
2018-09-17T01:59:48.493Z,4.63
2018-09-17T02:02:17.542Z,5.37
2018-09-17T02:04:46.608Z,5.20
2018-09-17T02:07:15.813Z,5.50
2018-09-17T02:09:44.280Z,5.20
2018-09-17T02:12:13.658Z,5.73
2018-09-17T02:14:43.253Z,5.07
2018-09-17T02:17:11.915Z,5.23
2018-09-17T02:19:40.342Z,5.67
2018-09-17T02:22:10.100Z,5.23
2018-09-17T02:24:39.064Z,5.90
2018-09-17T02:27:07.740Z,5.43
2018-09-17T02:29:36.229Z,6.00
2018-09-17T02:32:05.715Z,5.37
2018-09-17T02:34:34.845Z,5.50
2018-09-17T02:37:03.784Z,5.30
2018-09-17T02:39:32.284Z,5.83
2018-09-17T02:42:00.726Z,6.13
2018-09-17T02:44:29.140Z,5.47
2018-09-17T02:46:58.123Z,5.90
2018-09-17T02:49:26.581Z,5.97
2018-09-17T02:51:55.116Z,5.60
2018-09-17T02:54:23.502Z,6.13
2018-09-17T02:56:52.282Z,5.77
2018-09-17T02:59:20.986Z,6.00
2018-09-17T03:01:49.529Z,5.90
2018-09-17T03:04:19.149Z,5.53
2018-09-17T03:06:47.727Z,6.10
2018-09-17T03:09:16.156Z,5.97
2018-09-17T03:11:45.484Z,6.03
2018-09-17T03:14:14.348Z,6.60
2018-09-17T03:16:53.972Z,6.37
2018-09-17T03:19:22.483Z,6.83
2018-09-17T03:21:51.927Z,6.93
2018-09-17T03:24:20.423Z,6.70
2018-09-17T03:26:48.900Z,6.70
2018-09-17T03:29:18.485Z,6.80
2018-09-17T03:31:46.883Z,7.37
2018-09-17T03:34:15.311Z,5.83
2018-09-17T03:36:43.723Z,7.17
2018-09-17T03:39:12.286Z,6.93
2018-09-17T03:41:40.774Z,7.93
2018-09-17T03:44:09.398Z,7.73
2018-09-17T03:46:37.843Z,6.87
2018-09-17T03:49:06.325Z,7.43
2018-09-17T03:51:35.564Z,7.93
2018-09-17T03:54:04.732Z,7.40
2018-09-17T03:56:33.561Z,7.43
2018-09-17T03:59:02.090Z,8.50
2018-09-17T04:01:30.641Z,8.67
2018-09-17T04:03:59.064Z,7.80
2018-09-17T04:06:27.480Z,7.77
2018-09-17T04:08:55.910Z,8.27
2018-09-17T04:11:24.680Z,8.20
2018-09-17T04:13:53.732Z,7.77
2018-09-17T04:16:22.228Z,8.70
2018-09-17T04:18:50.889Z,7.80
2018-09-17T04:21:19.289Z,8.13
2018-09-17T04:23:48.908Z,8.10
2018-09-17T04:26:18.147Z,7.37
2018-09-17T04:28:46.730Z,7.27
2018-09-17T04:31:15.224Z,7.40
2018-09-17T04:33:44.151Z,7.77
2018-09-17T04:36:13.812Z,7.00
2018-09-17T04:38:42.497Z,7.03
2018-09-17T04:41:11.137Z,6.77
2018-09-17T04:43:39.881Z,7.20
2018-09-17T04:46:09.078Z,7.07
2018-09-17T04:48:37.512Z,7.50
2018-09-17T04:51:06.885Z,7.67
2018-09-17T04:53:35.631Z,6.87
2018-09-17T04:56:04.105Z,8.10
2018-09-17T04:58:32.569Z,8.10
2018-09-17T05:01:01.049Z,8.07
2018-09-17T05:03:29.584Z,6.77
2018-09-17T05:05:58.255Z,7.90
2018-09-17T05:08:26.717Z,7.70
2018-09-17T05:10:55.359Z,6.70
2018-09-17T05:13:24.035Z,7.73
2018-09-17T05:15:52.766Z,7.13
2018-09-17T05:18:21.220Z,7.27
2018-09-17T05:20:49.657Z,7.50
2018-09-17T05:23:18.108Z,7.10
2018-09-17T05:25:46.527Z,6.60
2018-09-17T05:28:15.274Z,6.33
2018-09-17T05:30:43.713Z,7.13
2018-09-17T05:33:12.692Z,6.93
2018-09-17T05:35:41.300Z,6.30
2018-09-17T05:38:09.889Z,6.70
2018-09-17T05:40:38.391Z,7.00
2018-09-17T05:43:06.915Z,6.30
2018-09-17T05:45:35.416Z,6.33
2018-09-17T05:48:04.124Z,7.37
2018-09-17T05:50:33.293Z,6.90
2018-09-17T05:53:02.243Z,7.23
2018-09-17T05:55:30.680Z,7.07
2018-09-17T05:57:59.887Z,6.90
2018-09-17T06:00:28.597Z,7.27
2018-09-17T06:02:58.496Z,6.90
2018-09-17T06:05:27.172Z,6.73
2018-09-17T06:07:55.809Z,7.10
2018-09-17T06:10:25.039Z,7.20
2018-09-17T06:12:53.500Z,7.30
2018-09-17T06:15:22.028Z,7.20
2018-09-17T06:17:50.652Z,8.07
2018-09-17T06:20:19.283Z,7.93
2018-09-17T06:22:54.789Z,7.63
2018-09-17T06:25:23.328Z,7.40
2018-09-17T06:27:51.844Z,7.37
2018-09-17T06:30:21.017Z,8.07
2018-09-17T06:32:49.905Z,7.43
2018-09-17T06:35:18.455Z,7.33
2018-09-17T06:37:46.945Z,6.70
2018-09-17T06:40:15.859Z,7.50
2018-09-17T06:42:44.287Z,7.20
2018-09-17T06:45:12.745Z,7.13
2018-09-17T06:47:41.414Z,6.97
2018-09-17T06:50:10.174Z,7.10
2018-09-17T06:52:38.620Z,7.53
2018-09-17T06:55:07.074Z,7.97
2018-09-17T06:57:35.624Z,7.90
2018-09-17T07:00:04.396Z,7.37
2018-09-17T07:02:32.868Z,7.33
2018-09-17T07:05:01.317Z,6.73
2018-09-17T07:07:29.815Z,7.10
2018-09-17T07:10:01.389Z,7.03
2018-09-17T07:12:30.518Z,6.80
2018-09-17T07:14:59.176Z,7.33
2018-09-17T07:17:27.710Z,7.20
2018-09-17T07:19:56.363Z,6.70
2018-09-17T07:22:25.092Z,7.97
2018-09-17T07:24:53.640Z,8.57
2018-09-17T07:27:22.214Z,7.77
2018-09-17T07:29:50.792Z,8.13
2018-09-17T07:32:19.544Z,7.77
2018-09-17T07:34:48.062Z,7.47
2018-09-17T07:37:16.690Z,6.67
2018-09-17T07:39:45.187Z,6.80
2018-09-17T07:42:13.669Z,7.40
2018-09-17T07:44:42.076Z,6.80
2018-09-17T07:47:10.548Z,6.73
2018-09-17T07:49:38.991Z,6.73
2018-09-17T07:52:07.701Z,6.47
2018-09-17T07:54:36.279Z,6.77
2018-09-17T07:57:05.316Z,7.60
2018-09-17T07:59:33.743Z,6.73
2018-09-17T08:02:02.332Z,6.80
2018-09-17T08:04:30.995Z,6.73
2018-09-17T08:06:59.532Z,5.97
2018-09-17T08:09:28.032Z,6.20
2018-09-17T08:11:56.513Z,6.57
2018-09-17T08:14:25.046Z,6.60
2018-09-17T08:16:53.603Z,6.27
2018-09-17T08:19:22.221Z,6.83
2018-09-17T08:21:51.752Z,6.33
2018-09-17T08:24:20.360Z,5.90
2018-09-17T08:26:48.752Z,6.97
2018-09-17T08:29:17.600Z,5.73
2018-09-17T08:31:46.135Z,5.53
2018-09-17T08:34:14.901Z,5.83
2018-09-17T08:36:43.593Z,7.00
2018-09-17T08:39:14.061Z,4.90
2018-09-17T08:41:43.343Z,5.53
2018-09-17T08:44:12.832Z,5.47
2018-09-17T08:46:41.454Z,6.10
2018-09-17T08:49:10.620Z,5.77
2018-09-17T08:51:39.080Z,5.35
2018-09-17T08:54:07.555Z,5.30
2018-09-17T08:56:41.345Z,5.62
2018-09-17T08:59:15.165Z,5.67
2018-09-17T09:01:48.833Z,5.87
2018-09-17T09:04:23.095Z,5.65
2018-09-17T09:06:55.342Z,4.10
2018-09-17T09:09:23.876Z,4.50
2018-09-17T09:12:01.577Z,4.60
2018-09-17T09:14:38.214Z,4.30
2018-09-17T09:17:07.981Z,3.58
2018-09-17T09:19:36.548Z,4.25
2018-09-17T09:22:04.972Z,3.85
2018-09-17T09:24:33.551Z,3.70
2018-09-17T09:27:02.052Z,3.52
2018-09-17T09:29:31.281Z,3.30
2018-09-17T09:32:00.635Z,3.55
2018-09-17T09:34:29.114Z,3.35
2018-09-17T09:36:57.746Z,3.47
2018-09-17T09:39:26.380Z,3.17
2018-09-17T09:41:54.981Z,3.07
2018-09-17T09:44:23.432Z,2.90
2018-09-17T09:46:52.160Z,2.87
2018-09-17T09:49:20.658Z,2.47
2018-09-17T09:51:49.112Z,2.95
2018-09-17T09:54:17.661Z,3.20
2018-09-17T09:56:46.275Z,3.02
2018-09-17T09:59:14.869Z,2.60
2018-09-17T10:01:48.724Z,2.62
2018-09-17T10:04:21.839Z,3.05
2018-09-17T10:06:50.845Z,2.77
2018-09-17T10:09:24.636Z,2.60
2018-09-17T10:11:58.380Z,2.08
2018-09-17T10:14:32.046Z,1.65
2018-09-17T10:17:06.619Z,1.92
2018-09-17T10:19:35.300Z,1.80
2018-09-17T10:22:03.867Z,2.60
2018-09-17T10:24:32.758Z,1.87
2018-09-17T10:27:01.364Z,2.37
2018-09-17T10:29:29.824Z,2.17
2018-09-17T10:31:58.426Z,2.05
2018-09-17T10:34:27.066Z,2.25
2018-09-17T10:36:55.650Z,1.85
2018-09-17T10:39:24.241Z,2.10
2018-09-17T10:41:52.807Z,2.10
2018-09-17T10:44:21.429Z,2.45
2018-09-17T10:46:49.925Z,1.92
2018-09-17T10:49:18.556Z,1.87
2018-09-17T10:51:47.144Z,1.90
2018-09-17T10:54:15.669Z,2.10
2018-09-17T10:56:44.327Z,1.90
2018-09-17T10:59:12.953Z,1.82
2018-09-17T11:01:41.409Z,2.55
2018-09-17T11:04:10.043Z,1.87
2018-09-17T11:06:38.764Z,3.22
2018-09-17T11:09:10.364Z,2.10
2018-09-17T11:11:39.528Z,2.05
2018-09-17T11:14:08.126Z,2.00
2018-09-17T11:16:37.302Z,2.00
2018-09-17T11:19:05.812Z,2.25
2018-09-17T11:21:34.321Z,1.85
2018-09-17T11:24:03.495Z,2.02
2018-09-17T11:26:32.288Z,2.30
2018-09-17T11:29:00.765Z,2.00
2018-09-17T11:31:29.612Z,1.87
2018-09-17T11:33:58.045Z,2.05
2018-09-17T11:36:26.773Z,1.57
2018-09-17T11:38:55.183Z,1.75
2018-09-17T11:41:24.539Z,2.27
2018-09-17T11:43:53.051Z,1.98
2018-09-17T11:46:21.511Z,2.05
2018-09-17T11:48:50.693Z,1.52
2018-09-17T11:51:19.577Z,1.80
2018-09-17T11:53:48.259Z,1.57
2018-09-17T11:56:16.812Z,1.80
2018-09-17T11:58:45.273Z,2.22
2018-09-17T12:01:19.755Z,1.70
2018-09-17T12:03:53.581Z,1.75
2018-09-17T12:06:27.339Z,1.75
2018-09-17T12:08:55.796Z,2.22
2018-09-17T12:11:24.344Z,1.75
2018-09-17T12:13:52.978Z,1.72
2018-09-17T12:16:21.439Z,1.75
2018-09-17T12:18:49.953Z,1.70
2018-09-17T12:21:18.395Z,1.70
2018-09-17T12:23:47.111Z,1.67
2018-09-17T12:26:15.764Z,1.90
2018-09-17T12:28:44.200Z,1.57
2018-09-17T12:31:13.469Z,2.17
2018-09-17T12:33:41.979Z,1.50
2018-09-17T12:36:10.620Z,1.40
2018-09-17T12:38:39.041Z,1.85
2018-09-17T12:41:07.848Z,2.00
2018-09-17T12:43:36.432Z,2.05
2018-09-17T12:46:05.112Z,1.55
2018-09-17T12:48:33.657Z,1.67
2018-09-17T12:51:02.407Z,1.40
2018-09-17T12:53:30.998Z,1.42
2018-09-17T12:55:59.578Z,1.70
2018-09-17T12:58:28.149Z,1.95
2018-09-17T13:00:56.793Z,8.10
2018-09-17T13:03:25.793Z,1.42
2018-09-17T13:05:54.289Z,1.45
2018-09-17T13:08:22.792Z,1.98
2018-09-17T13:10:51.369Z,1.98
2018-09-17T13:13:20.663Z,1.40
2018-09-17T13:15:55.545Z,1.30
2018-09-17T13:18:25.547Z,1.52
2018-09-17T13:20:54.069Z,1.65
2018-09-17T13:23:29.179Z,1.50
2018-09-17T13:25:58.332Z,1.62
2018-09-17T13:28:33.047Z,1.50
2018-09-17T13:31:01.578Z,1.43
2018-09-17T13:33:30.385Z,1.20
2018-09-17T13:35:58.954Z,1.20
2018-09-17T13:38:27.512Z,1.42
2018-09-17T13:40:56.078Z,1.63
2018-09-17T13:43:24.835Z,1.50
2018-09-17T13:45:53.813Z,1.50
2018-09-17T13:48:22.566Z,1.92
2018-09-17T13:50:51.079Z,1.52
2018-09-17T13:53:19.855Z,1.55
2018-09-17T13:55:48.290Z,1.98
2018-09-17T13:58:16.831Z,2.12
2018-09-17T14:00:45.340Z,1.50
2018-09-17T14:03:14.790Z,1.55
2018-09-17T14:05:44.110Z,1.47
2018-09-17T14:08:12.624Z,1.50
2018-09-17T14:10:41.112Z,1.77
2018-09-17T14:13:09.792Z,1.45
2018-09-17T14:15:38.717Z,1.85
2018-09-17T14:18:07.210Z,1.50
2018-09-17T14:20:36.230Z,1.32
2018-09-17T14:23:04.744Z,1.47
2018-09-17T14:25:34.453Z,1.70
2018-09-17T14:28:05.578Z,2.17
2018-09-17T14:30:34.416Z,1.35
2018-09-17T14:33:08.295Z,1.60
2018-09-17T14:35:37.113Z,1.50
2018-09-17T14:38:05.682Z,2.52
2018-09-17T14:40:34.237Z,1.52
2018-09-17T14:43:02.848Z,1.62
2018-09-17T14:45:31.588Z,1.37
2018-09-17T14:48:00.074Z,1.52
2018-09-17T14:50:28.580Z,1.65
2018-09-17T14:52:58.457Z,1.50
2018-09-17T14:55:27.123Z,1.30
2018-09-17T14:57:55.723Z,1.72
2018-09-17T15:00:24.188Z,1.30
2018-09-17T15:02:52.830Z,9.30
2018-09-17T15:05:21.501Z,2.80
2018-09-17T15:07:50.046Z,2.50
2018-09-17T15:10:18.493Z,1.50
2018-09-17T15:12:47.227Z,1.47
2018-09-17T15:15:16.002Z,1.67
2018-09-17T15:17:44.447Z,1.55
2018-09-17T15:20:13.495Z,2.10
2018-09-17T15:22:42.298Z,1.72
2018-09-17T15:25:13.812Z,1.50
2018-09-17T15:27:42.731Z,1.67
2018-09-17T15:30:11.641Z,1.82
2018-09-17T15:32:40.351Z,1.80
2018-09-17T15:35:08.815Z,1.80
2018-09-17T15:37:37.332Z,2.33
2018-09-17T15:40:06.525Z,1.77
2018-09-17T15:42:35.012Z,1.72
2018-09-17T15:45:03.596Z,2.12
2018-09-17T15:47:32.272Z,1.82
2018-09-17T15:50:01.152Z,2.12
2018-09-17T15:52:29.755Z,1.77
2018-09-17T15:54:58.306Z,2.62
2018-09-17T15:57:26.776Z,3.65
2018-09-17T15:59:55.422Z,2.17
2018-09-17T16:02:24.025Z,2.00
2018-09-17T16:04:52.773Z,2.00
2018-09-17T16:07:24.131Z,2.20
2018-09-17T16:09:52.986Z,2.17
2018-09-17T16:12:21.732Z,2.50
2018-09-17T16:14:50.619Z,2.15
2018-09-17T16:17:19.351Z,2.60
2018-09-17T16:19:47.846Z,2.00
2018-09-17T16:22:16.422Z,2.70
2018-09-17T16:24:45.565Z,2.40
2018-09-17T16:27:14.590Z,2.33
2018-09-17T16:29:43.352Z,2.10
2018-09-17T16:32:12.607Z,2.42
2018-09-17T16:34:41.269Z,2.10
2018-09-17T16:37:09.872Z,2.12
2018-09-17T16:39:38.439Z,2.33
2018-09-17T16:42:08.079Z,2.67
2018-09-17T16:44:36.722Z,2.33
2018-09-17T16:47:05.286Z,2.20
2018-09-17T16:49:33.908Z,2.37
2018-09-17T16:52:02.424Z,2.60
2018-09-17T16:54:30.894Z,2.60
2018-09-17T16:57:00.004Z,2.40
2018-09-17T16:59:28.945Z,2.30
2018-09-17T17:01:57.505Z,2.65
2018-09-17T17:04:26.013Z,2.50
2018-09-17T17:06:54.492Z,2.05
2018-09-17T17:09:23.171Z,2.70
2018-09-17T17:11:51.832Z,2.30
2018-09-17T17:14:20.464Z,2.05
2018-09-17T17:16:49.659Z,2.90
2018-09-17T17:19:18.192Z,2.85
2018-09-17T17:21:47.016Z,3.47
2018-09-17T17:24:16.278Z,3.22
2018-09-17T17:26:44.875Z,2.92
2018-09-17T17:29:13.533Z,3.40
2018-09-17T17:31:42.185Z,3.00
2018-09-17T17:34:10.867Z,3.22
2018-09-17T17:36:46.291Z,4.28
2018-09-17T17:39:14.985Z,5.80
2018-09-17T17:41:44.094Z,4.08
2018-09-17T17:44:12.724Z,4.03
2018-09-17T17:46:41.535Z,3.65
2018-09-17T17:49:10.722Z,3.27
2018-09-17T17:51:39.410Z,2.90
2018-09-17T17:54:07.963Z,2.90
2018-09-17T17:56:36.619Z,2.95
2018-09-17T17:59:05.189Z,2.80
2018-09-17T18:01:33.908Z,3.25
2018-09-17T18:04:02.567Z,3.30
2018-09-17T18:06:31.081Z,3.17
2018-09-17T18:09:00.214Z,3.00
2018-09-17T18:11:29.017Z,4.15
2018-09-17T18:13:57.501Z,3.58
2018-09-17T18:16:32.524Z,3.55
2018-09-17T18:19:02.493Z,3.70
2018-09-17T18:21:31.429Z,3.80
2018-09-17T18:24:00.141Z,3.70
2018-09-17T18:26:29.519Z,3.67
2018-09-17T18:28:57.971Z,4.00
2018-09-17T18:31:26.656Z,3.87
2018-09-17T18:33:55.199Z,3.90
2018-09-17T18:36:23.773Z,4.20
2018-09-17T18:38:52.639Z,4.40
2018-09-17T18:41:21.305Z,4.22
2018-09-17T18:43:50.244Z,5.28
2018-09-17T18:46:18.871Z,6.62
2018-09-17T18:48:47.341Z,7.60
2018-09-17T18:51:15.973Z,9.25
2018-09-17T18:53:44.486Z,9.45
2018-09-17T18:56:13.161Z,10.25
2018-09-17T18:58:41.636Z,9.08
2018-09-17T19:01:10.232Z,9.93
2018-09-17T19:03:38.727Z,9.60
2018-09-17T19:06:07.505Z,9.23
2018-09-17T19:08:35.956Z,9.25
2018-09-17T19:11:06.036Z,9.03
2018-09-17T19:13:35.009Z,9.03
2018-09-17T19:16:03.579Z,8.90
2018-09-17T19:18:32.239Z,9.35
2018-09-17T19:21:01.569Z,9.60
2018-09-17T19:23:35.181Z,8.20
2018-09-17T19:26:03.973Z,8.95
2018-09-17T19:28:37.704Z,9.50
2018-09-17T19:31:06.234Z,8.28
2018-09-17T19:33:34.725Z,7.85
2018-09-17T19:36:03.325Z,9.28
2018-09-17T19:38:36.927Z,8.60
2018-09-17T19:41:05.493Z,7.92
2018-09-17T19:43:34.142Z,7.00
2018-09-17T19:46:20.464Z,6.80
2018-09-17T19:48:49.458Z,5.97
2018-09-17T19:51:23.284Z,7.10
2018-09-17T19:53:51.710Z,6.83
2018-09-17T19:56:20.487Z,6.72
2018-09-17T19:58:54.239Z,7.33
2018-09-17T20:01:22.767Z,7.37
2018-09-17T20:03:51.389Z,6.92
2018-09-17T20:06:22.783Z,7.62
2018-09-17T20:08:51.387Z,7.92
2018-09-17T20:11:19.126Z,7.45
2018-09-17T20:13:47.741Z,7.72
2018-09-17T20:16:16.420Z,8.48
2018-09-17T20:18:44.907Z,8.43
2018-09-17T20:21:13.358Z,8.88
2018-09-17T20:23:42.559Z,9.45
2018-09-17T20:26:11.372Z,9.38
2018-09-17T20:28:40.034Z,9.15
2018-09-17T20:31:08.576Z,10.13
2018-09-17T20:33:37.559Z,9.63
2018-09-17T20:36:06.230Z,9.68
2018-09-17T20:38:34.774Z,9.98
2018-09-17T20:41:03.360Z,10.30
2018-09-17T20:43:32.409Z,11.40
2018-09-17T20:46:01.341Z,9.83
2018-09-17T20:48:29.864Z,9.38
2018-09-17T20:50:58.851Z,9.73
2018-09-17T20:53:27.653Z,9.58
2018-09-17T20:55:56.506Z,9.88
2018-09-17T20:58:24.971Z,10.70
2018-09-17T21:00:53.453Z,10.60
2018-09-17T21:03:21.901Z,9.90
2018-09-17T21:05:51.232Z,10.78
2018-09-17T21:08:19.965Z,10.93
2018-09-17T21:10:48.666Z,10.05
2018-09-17T21:13:17.281Z,10.20
2018-09-17T21:15:45.811Z,9.30
2018-09-17T21:18:14.304Z,10.08
2018-09-17T21:20:42.903Z,9.30
2018-09-17T21:23:11.416Z,9.90
2018-09-17T21:25:40.576Z,10.58
2018-09-17T21:28:09.144Z,10.28
2018-09-17T21:30:38.207Z,9.65
2018-09-17T21:33:07.068Z,9.25
2018-09-17T21:35:35.630Z,9.15
2018-09-17T21:38:04.953Z,8.95
2018-09-17T21:40:33.381Z,8.60
2018-09-17T21:43:01.937Z,8.78
2018-09-17T21:45:30.494Z,8.50
2018-09-17T21:47:59.096Z,8.58
2018-09-17T21:50:27.626Z,8.13
2018-09-17T21:52:56.302Z,7.72
2018-09-17T21:55:24.805Z,8.37
2018-09-17T21:57:53.341Z,8.80
2018-09-17T22:00:21.865Z,7.77
2018-09-17T22:02:50.284Z,7.65
2018-09-17T22:05:18.801Z,7.57
2018-09-17T22:07:47.377Z,7.65
2018-09-17T22:10:15.924Z,8.67
2018-09-17T22:12:44.594Z,7.83
2018-09-17T22:15:13.202Z,6.53
2018-09-17T22:17:41.633Z,6.60
2018-09-17T22:20:10.302Z,5.47
2018-09-17T22:22:38.841Z,5.50
2018-09-17T22:25:07.391Z,5.17
2018-09-17T22:27:36.364Z,4.47
2018-09-17T22:30:04.907Z,4.40
2018-09-17T22:32:33.409Z,4.40
2018-09-17T22:35:02.953Z,4.73
2018-09-17T22:37:31.555Z,4.37
2018-09-17T22:40:00.096Z,5.03
2018-09-17T22:42:28.966Z,3.80
2018-09-17T22:44:57.404Z,4.53
2018-09-17T22:47:25.845Z,4.17
2018-09-17T22:49:54.364Z,4.65
2018-09-17T22:52:22.831Z,3.92
2018-09-17T22:54:51.277Z,3.77
2018-09-17T22:57:19.808Z,4.53
2018-09-17T22:59:48.460Z,4.25
2018-09-17T23:02:16.896Z,3.87
2018-09-17T23:04:45.519Z,3.80
2018-09-17T23:07:14.090Z,4.43
2018-09-17T23:09:42.609Z,4.30
2018-09-17T23:12:17.366Z,4.00
2018-09-17T23:14:45.972Z,3.77
2018-09-17T23:17:14.585Z,4.23
2018-09-17T23:19:43.017Z,4.13
2018-09-17T23:22:11.588Z,4.40
2018-09-17T23:24:40.155Z,4.40
2018-09-17T23:27:08.580Z,3.67
2018-09-17T23:29:37.156Z,4.25
2018-09-17T23:32:06.024Z,4.97
2018-09-17T23:34:34.640Z,4.13
2018-09-17T23:37:03.135Z,3.97
2018-09-17T23:39:31.606Z,4.20
2018-09-17T23:42:00.451Z,4.40
2018-09-17T23:44:29.083Z,4.03
2018-09-17T23:46:57.539Z,3.70
2018-09-17T23:49:25.963Z,3.80
2018-09-17T23:51:54.376Z,3.70
2018-09-17T23:54:22.764Z,4.58
2018-09-17T23:56:51.222Z,3.90
2018-09-17T23:59:19.814Z,3.75
